createdAt,value
2022-08-10T00:01:51.333Z,0.20
2022-08-10T00:04:21.530Z,0.40
2022-08-10T00:06:51.194Z,0.52
2022-08-10T00:09:18.449Z,0.35
2022-08-10T00:11:45.692Z,0.20
2022-08-10T00:14:13.034Z,0.40
2022-08-10T00:16:40.309Z,0.60
2022-08-10T00:19:07.761Z,0.45
2022-08-10T00:21:37.231Z,0.22
2022-08-10T00:24:05.023Z,0.32
2022-08-10T00:27:52.659Z,0.40
2022-08-10T00:29:19.698Z,0.35
2022-08-10T00:31:55.940Z,0.30
2022-08-10T00:34:30.055Z,0.57
2022-08-10T00:36:57.972Z,0.30
2022-08-10T00:39:26.069Z,0.30
2022-08-10T00:42:01.942Z,0.30
2022-08-10T00:44:36.901Z,0.30
2022-08-10T00:47:04.550Z,0.35
2022-08-10T00:49:32.104Z,0.85
2022-08-10T00:51:59.355Z,0.30
2022-08-10T00:54:26.970Z,0.35
2022-08-10T00:57:18.019Z,0.20
2022-08-10T00:59:58.469Z,0.20
2022-08-10T01:02:32.773Z,0.38
2022-08-10T01:05:08.891Z,0.40
2022-08-10T01:08:15.213Z,0.50
2022-08-10T01:12:37.216Z,0.88
2022-08-10T01:14:21.589Z,0.30
2022-08-10T01:17:00.660Z,0.40
2022-08-10T01:19:56.171Z,0.30
2022-08-10T01:22:48.112Z,0.40
2022-08-10T01:25:27.351Z,0.30
2022-08-10T01:28:32.295Z,0.60
2022-08-10T01:31:02.613Z,0.32
2022-08-10T01:33:58.248Z,0.30
2022-08-10T01:36:35.086Z,0.35
2022-08-10T01:39:04.856Z,0.40
2022-08-10T01:41:45.600Z,0.52
2022-08-10T01:44:27.783Z,0.40
2022-08-10T01:47:22.358Z,0.30
2022-08-10T01:49:53.867Z,0.40
2022-08-10T01:52:23.955Z,0.85
2022-08-10T01:54:53.602Z,0.50
2022-08-10T01:57:25.941Z,0.40
2022-08-10T02:00:01.955Z,0.35
2022-08-10T02:02:34.128Z,0.40
2022-08-10T02:05:05.421Z,0.63
2022-08-10T02:07:36.401Z,0.50
2022-08-10T02:10:11.287Z,0.43
2022-08-10T02:12:40.130Z,0.57
2022-08-10T02:15:12.989Z,0.40
2022-08-10T02:21:00.126Z,0.45
2022-08-10T02:23:32.044Z,0.50
2022-08-10T02:26:01.991Z,0.50
2022-08-10T02:28:32.457Z,0.40
2022-08-10T02:31:07.017Z,0.50
2022-08-10T02:33:56.199Z,0.40
2022-08-10T02:36:29.769Z,0.55
2022-08-10T02:39:01.437Z,0.40
2022-08-10T02:42:18.827Z,0.50
2022-08-10T02:45:19.999Z,0.40
2022-08-10T02:48:06.076Z,0.60
2022-08-10T02:50:39.106Z,0.52
2022-08-10T02:53:56.133Z,0.70
2022-08-10T02:56:32.798Z,0.50
2022-08-10T02:59:10.470Z,0.50
2022-08-10T03:01:43.781Z,0.60
2022-08-10T03:04:20.634Z,0.60
2022-08-10T03:07:13.502Z,0.55
2022-08-10T03:09:42.277Z,0.63
2022-08-10T03:12:35.394Z,0.60
2022-08-10T03:15:01.870Z,0.40
2022-08-10T03:17:31.149Z,0.65
2022-08-10T03:20:04.671Z,0.57
2022-08-10T03:22:51.210Z,0.47
2022-08-10T03:25:22.196Z,0.60
2022-08-10T03:27:50.631Z,0.60
2022-08-10T03:30:28.627Z,0.68
2022-08-10T03:35:29.163Z,0.90
2022-08-10T03:37:59.466Z,0.65
2022-08-10T03:40:45.765Z,0.73
2022-08-10T03:43:20.692Z,0.80
2022-08-10T03:45:55.839Z,0.73
2022-08-10T03:48:32.244Z,1.50
2022-08-10T03:51:14.902Z,0.80
2022-08-10T03:54:04.871Z,0.77
2022-08-10T03:56:32.389Z,1.02
2022-08-10T03:59:01.623Z,0.90
2022-08-10T04:02:43.691Z,0.68
2022-08-10T04:04:23.648Z,0.70
2022-08-10T04:06:57.028Z,1.00
2022-08-10T04:09:42.994Z,0.70
2022-08-10T04:12:15.611Z,0.60
2022-08-10T04:14:50.394Z,0.70
2022-08-10T04:18:03.107Z,0.68
2022-08-10T04:20:25.273Z,0.60
2022-08-10T04:22:54.444Z,0.60
2022-08-10T04:25:24.288Z,0.82
2022-08-10T04:27:52.636Z,0.70
2022-08-10T04:30:20.352Z,0.60
2022-08-10T04:32:52.498Z,0.70
2022-08-10T04:35:23.124Z,0.70
2022-08-10T04:37:52.081Z,0.75
2022-08-10T04:40:28.682Z,0.90
2022-08-10T04:43:01.328Z,0.70
2022-08-10T04:45:48.361Z,0.60
2022-08-10T04:48:41.110Z,0.65
2022-08-10T04:51:21.255Z,0.77
2022-08-10T04:54:05.273Z,0.68
2022-08-10T04:56:38.962Z,0.63
2022-08-10T04:59:08.172Z,0.57
2022-08-10T05:02:28.219Z,0.60
2022-08-10T05:04:36.776Z,0.60
2022-08-10T05:07:11.160Z,0.60
2022-08-10T05:10:02.357Z,0.70
2022-08-10T05:12:31.804Z,1.17
2022-08-10T05:14:59.152Z,0.88
2022-08-10T05:17:26.765Z,0.70
2022-08-10T05:20:03.883Z,0.80
2022-08-10T05:22:36.043Z,0.63
2022-08-10T05:25:04.237Z,0.63
2022-08-10T05:27:31.812Z,0.77
2022-08-10T05:30:01.487Z,0.85
2022-08-10T05:32:55.551Z,0.73
2022-08-10T05:35:23.230Z,0.50
2022-08-10T05:38:09.952Z,0.75
2022-08-10T05:40:42.687Z,1.42
2022-08-10T05:43:17.505Z,0.90
2022-08-10T05:46:17.839Z,0.70
2022-08-10T05:48:56.557Z,0.60
2022-08-10T05:51:20.853Z,0.47
2022-08-10T05:54:02.616Z,1.10
2022-08-10T05:56:53.475Z,0.57
2022-08-10T06:00:33.148Z,0.40
2022-08-10T06:02:41.436Z,0.98
2022-08-10T06:05:21.531Z,0.55
2022-08-10T06:07:56.282Z,0.47
2022-08-10T06:10:31.678Z,0.55
2022-08-10T06:13:29.707Z,0.50
2022-08-10T06:16:06.705Z,0.60
2022-08-10T06:18:34.582Z,0.50
2022-08-10T06:21:02.428Z,0.60
2022-08-10T06:23:30.903Z,0.50
2022-08-10T06:26:10.405Z,0.50
2022-08-10T06:31:48.032Z,0.40
2022-08-10T06:34:27.966Z,0.40
2022-08-10T06:36:59.822Z,0.32
2022-08-10T06:39:36.583Z,0.38
2022-08-10T06:42:33.809Z,0.40
2022-08-10T06:45:15.679Z,0.35
2022-08-10T06:47:42.956Z,0.50
2022-08-10T06:50:45.498Z,0.60
2022-08-10T06:53:17.996Z,0.57
2022-08-10T06:56:03.363Z,0.30
2022-08-10T06:58:37.056Z,0.60
2022-08-10T07:01:09.068Z,0.38
2022-08-10T07:03:43.382Z,0.45
2022-08-10T07:06:14.411Z,0.30
2022-08-10T07:08:42.286Z,0.45
2022-08-10T07:11:12.245Z,0.43
2022-08-10T07:14:14.654Z,0.30
2022-08-10T07:16:31.330Z,0.40
2022-08-10T07:19:00.596Z,0.32
2022-08-10T07:21:30.141Z,0.40
2022-08-10T07:24:00.815Z,0.40
2022-08-10T07:26:30.748Z,0.40
2022-08-10T07:28:59.759Z,0.28
2022-08-10T07:31:36.089Z,0.40
2022-08-10T07:34:28.547Z,0.50
2022-08-10T07:37:01.094Z,0.57
2022-08-10T07:40:02.644Z,0.20
2022-08-10T07:42:23.401Z,0.35
2022-08-10T07:44:51.392Z,0.30
2022-08-10T07:47:54.055Z,0.30
2022-08-10T07:50:14.697Z,0.43
2022-08-10T07:52:44.029Z,0.30
2022-08-10T07:55:15.492Z,0.30
2022-08-10T07:57:46.678Z,0.40
2022-08-10T08:00:15.182Z,0.25
2022-08-10T08:02:49.589Z,0.30
2022-08-10T08:05:57.432Z,0.38
2022-08-10T08:08:08.238Z,0.40
2022-08-10T08:10:38.375Z,0.30
2022-08-10T08:13:06.352Z,0.30
2022-08-10T08:16:17.290Z,0.35
2022-08-10T08:18:25.563Z,0.25
2022-08-10T08:20:54.616Z,0.20
2022-08-10T08:24:04.977Z,0.30
2022-08-10T08:26:11.987Z,0.40
2022-08-10T08:28:45.779Z,0.20
2022-08-10T08:31:15.604Z,0.20
2022-08-10T08:33:45.840Z,0.30
2022-08-10T08:36:16.078Z,0.30
2022-08-10T08:38:44.259Z,0.38
2022-08-10T08:41:46.402Z,0.40
2022-08-10T08:44:42.024Z,0.20
2022-08-10T08:48:04.505Z,0.30
2022-08-10T08:50:46.117Z,0.25
2022-08-10T08:54:01.077Z,0.30
2022-08-10T08:56:50.179Z,0.30
2022-08-10T08:59:50.580Z,0.32
2022-08-10T09:02:34.713Z,0.22
2022-08-10T09:05:22.762Z,0.20
2022-08-10T09:08:08.888Z,0.30
2022-08-10T09:10:54.905Z,0.20
2022-08-10T09:13:53.486Z,0.82
2022-08-10T09:16:43.549Z,0.20
2022-08-10T09:19:35.554Z,0.20
2022-08-10T09:22:51.686Z,0.20
2022-08-10T09:25:34.693Z,0.25
2022-08-10T09:28:06.101Z,0.20
2022-08-10T09:31:18.705Z,0.20
2022-08-10T09:36:28.950Z,0.10
2022-08-10T09:37:16.994Z,0.20
2022-08-10T09:40:56.393Z,0.15
2022-08-10T09:45:43.392Z,0.20
2022-08-10T09:48:19.798Z,0.30
2022-08-10T09:51:44.391Z,0.30
2022-08-10T09:54:33.065Z,0.20
2022-08-10T09:57:46.675Z,0.20
2022-08-10T10:00:14.293Z,0.20
2022-08-10T10:03:03.468Z,0.20
2022-08-10T10:05:58.895Z,0.43
2022-08-10T10:08:45.056Z,0.20
2022-08-10T10:11:21.321Z,0.20
2022-08-10T10:14:22.428Z,0.20
2022-08-10T10:16:57.524Z,0.20
2022-08-10T10:19:49.655Z,0.47
2022-08-10T10:22:26.288Z,0.20
2022-08-10T10:25:19.748Z,0.20
2022-08-10T10:28:10.746Z,0.20
2022-08-10T10:30:50.768Z,0.20
2022-08-10T10:33:51.958Z,0.20
2022-08-10T10:36:21.085Z,0.10
2022-08-10T10:38:49.554Z,0.20
2022-08-10T10:41:56.017Z,0.20
2022-08-10T10:44:25.372Z,0.20
2022-08-10T10:46:55.841Z,0.10
2022-08-10T10:49:42.909Z,0.22
2022-08-10T10:52:25.225Z,0.10
2022-08-10T10:55:10.462Z,0.10
2022-08-10T10:58:05.542Z,0.15
2022-08-10T11:01:03.183Z,0.20
2022-08-10T11:03:52.303Z,0.20
2022-08-10T11:06:57.241Z,0.25
2022-08-10T11:10:04.588Z,0.10
2022-08-10T11:12:34.044Z,0.10
2022-08-10T11:15:08.528Z,0.20
2022-08-10T11:17:42.980Z,0.10
2022-08-10T11:20:41.038Z,0.15
2022-08-10T11:23:11.041Z,0.20
2022-08-10T11:25:46.594Z,0.10
2022-08-10T11:28:20.743Z,0.10
2022-08-10T11:30:51.091Z,0.10
2022-08-10T11:33:31.039Z,0.20
2022-08-10T11:36:17.967Z,0.20
2022-08-10T11:39:19.919Z,0.10
2022-08-10T11:42:31.467Z,0.13
2022-08-10T11:45:09.433Z,0.10
2022-08-10T11:47:45.059Z,0.10
2022-08-10T11:50:22.171Z,0.10
2022-08-10T11:52:53.788Z,0.30
2022-08-10T11:55:23.870Z,0.20
2022-08-10T11:57:55.972Z,0.52
2022-08-10T12:00:29.462Z,0.20
2022-08-10T12:03:07.713Z,0.60
2022-08-10T12:05:51.638Z,0.20
2022-08-10T12:10:06.981Z,0.10
2022-08-10T12:11:22.438Z,0.20
2022-08-10T12:14:17.908Z,0.20
2022-08-10T12:16:43.471Z,0.10
2022-08-10T12:20:02.176Z,0.35
2022-08-10T12:22:55.866Z,0.20
2022-08-10T12:25:55.595Z,0.25
2022-08-10T12:28:50.488Z,0.10
2022-08-10T12:31:31.028Z,0.20
2022-08-10T12:34:10.003Z,0.20
2022-08-10T12:36:43.175Z,0.10
2022-08-10T12:39:22.537Z,0.10
2022-08-10T12:41:54.244Z,0.10
2022-08-10T12:44:45.261Z,0.10
2022-08-10T12:47:34.932Z,0.25
2022-08-10T12:50:30.284Z,0.17
2022-08-10T12:53:25.751Z,0.20
2022-08-10T12:55:54.051Z,0.10
2022-08-10T12:58:59.869Z,0.30
2022-08-10T13:01:16.940Z,0.20
2022-08-10T13:04:23.829Z,0.20
2022-08-10T13:06:47.249Z,0.20
2022-08-10T13:09:21.798Z,0.47
2022-08-10T13:12:35.232Z,0.20
2022-08-10T13:15:45.745Z,0.20
2022-08-10T13:18:18.306Z,0.20
2022-08-10T13:20:52.594Z,0.17
2022-08-10T13:23:28.588Z,0.20
2022-08-10T13:25:59.824Z,0.20
2022-08-10T13:28:49.718Z,0.10
2022-08-10T13:32:04.427Z,0.40
2022-08-10T13:34:42.583Z,0.20
2022-08-10T13:37:10.729Z,0.35
2022-08-10T13:39:57.639Z,0.17
2022-08-10T13:42:37.782Z,0.25
2022-08-10T13:45:09.843Z,0.10
2022-08-10T13:47:49.609Z,0.20
2022-08-10T13:50:33.589Z,0.20
2022-08-10T13:53:10.037Z,0.13
2022-08-10T13:55:57.200Z,0.10
2022-08-10T13:58:34.247Z,0.10
2022-08-10T14:01:10.254Z,0.10
2022-08-10T14:03:40.215Z,0.10
2022-08-10T14:06:12.892Z,0.13
2022-08-10T14:08:46.695Z,0.20
2022-08-10T14:11:18.545Z,0.10
2022-08-10T14:16:19.721Z,0.10
2022-08-10T14:18:50.664Z,0.10
2022-08-10T14:21:18.152Z,0.13
2022-08-10T14:23:51.965Z,0.22
2022-08-10T14:26:26.821Z,0.20
2022-08-10T14:29:08.265Z,0.10
2022-08-10T14:31:39.599Z,0.10
2022-08-10T14:36:18.493Z,0.20
2022-08-10T14:37:32.152Z,0.10
2022-08-10T14:40:10.426Z,0.17
2022-08-10T14:42:47.506Z,0.20
2022-08-10T14:45:30.435Z,0.10
2022-08-10T14:48:06.303Z,0.20
2022-08-10T14:50:35.940Z,0.15
2022-08-10T14:53:20.900Z,0.10
2022-08-10T14:56:02.004Z,0.10
2022-08-10T14:59:06.201Z,0.20
2022-08-10T15:02:00.992Z,0.28
2022-08-10T15:04:26.859Z,0.10
2022-08-10T15:06:57.569Z,0.10
2022-08-10T15:09:31.188Z,0.20
2022-08-10T15:12:24.955Z,0.20
2022-08-10T15:15:00.737Z,0.10
2022-08-10T15:17:39.808Z,0.10
2022-08-10T15:20:20.656Z,0.20
2022-08-10T15:23:01.260Z,0.20
2022-08-10T15:25:30.595Z,0.20
2022-08-10T15:28:10.701Z,0.10
2022-08-10T15:30:43.837Z,0.20
2022-08-10T15:34:04.514Z,0.15
2022-08-10T15:37:17.038Z,0.38
2022-08-10T15:40:21.329Z,0.50
2022-08-10T15:42:52.518Z,0.20
2022-08-10T15:45:20.297Z,0.17
2022-08-10T15:48:02.407Z,0.20
2022-08-10T15:50:40.295Z,0.20
2022-08-10T15:53:15.855Z,0.20
2022-08-10T15:55:52.159Z,0.13
2022-08-10T15:58:38.896Z,0.20
2022-08-10T16:02:14.760Z,0.10
2022-08-10T16:04:08.287Z,0.28
2022-08-10T16:06:47.403Z,0.20
2022-08-10T16:10:24.729Z,0.20
2022-08-10T16:12:29.133Z,0.10
2022-08-10T16:15:00.321Z,0.20
2022-08-10T16:17:28.552Z,0.20
2022-08-10T16:19:58.281Z,1.40
2022-08-10T16:22:36.367Z,0.30
2022-08-10T16:25:14.462Z,0.17
2022-08-10T16:27:43.700Z,0.17
2022-08-10T16:30:12.497Z,0.47
2022-08-10T16:32:40.995Z,0.20
2022-08-10T16:35:12.541Z,0.20
2022-08-10T16:37:58.969Z,0.20
2022-08-10T16:40:30.031Z,0.20
2022-08-10T16:43:00.913Z,0.20
2022-08-10T16:45:50.785Z,0.20
2022-08-10T16:48:49.008Z,0.20
2022-08-10T16:51:10.279Z,0.22
2022-08-10T16:53:47.809Z,0.20
2022-08-10T16:56:16.489Z,0.20
2022-08-10T16:58:54.774Z,0.20
2022-08-10T17:01:24.966Z,0.20
2022-08-10T17:04:06.942Z,0.35
2022-08-10T17:06:42.720Z,0.20
2022-08-10T17:09:18.742Z,0.20
2022-08-10T17:11:50.203Z,0.20
2022-08-10T17:14:26.019Z,0.82
2022-08-10T17:17:00.598Z,0.17
2022-08-10T17:19:30.262Z,0.10
2022-08-10T17:22:00.018Z,0.20
2022-08-10T17:24:42.379Z,0.20
2022-08-10T17:28:05.787Z,0.30
2022-08-10T17:30:07.117Z,0.20
2022-08-10T17:32:53.339Z,0.28
2022-08-10T17:35:24.402Z,0.30
2022-08-10T17:38:16.979Z,0.55
2022-08-10T17:41:16.704Z,0.10
2022-08-10T17:43:58.373Z,0.10
2022-08-10T17:46:38.958Z,0.30
2022-08-10T17:49:09.806Z,0.65
2022-08-10T17:51:42.993Z,0.20
2022-08-10T17:54:42.162Z,0.20
2022-08-10T17:57:14.233Z,0.20
2022-08-10T18:02:15.084Z,0.20
2022-08-10T18:04:50.530Z,0.30
2022-08-10T18:07:22.461Z,0.20
2022-08-10T18:09:52.875Z,0.20
2022-08-10T18:12:30.910Z,0.35
2022-08-10T18:15:05.554Z,0.22
2022-08-10T18:17:40.381Z,0.30
2022-08-10T18:20:11.042Z,0.40
2022-08-10T18:22:47.174Z,0.25
2022-08-10T18:25:28.511Z,0.20
2022-08-10T18:28:03.575Z,0.30
2022-08-10T18:30:36.991Z,0.50
2022-08-10T18:33:11.429Z,0.30
2022-08-10T18:35:39.904Z,0.30
2022-08-10T18:38:08.444Z,0.32
2022-08-10T18:40:40.744Z,0.30
2022-08-10T18:44:09.806Z,0.40
2022-08-10T18:46:00.346Z,0.20
2022-08-10T18:48:37.691Z,0.30
2022-08-10T18:51:06.796Z,0.20
2022-08-10T18:53:38.847Z,0.28
2022-08-10T18:56:32.797Z,0.50
2022-08-10T18:59:09.264Z,0.20
2022-08-10T19:02:02.043Z,0.40
2022-08-10T19:04:52.099Z,0.40
2022-08-10T19:07:46.015Z,0.28
2022-08-10T19:10:55.685Z,0.30
2022-08-10T19:13:53.145Z,0.38
2022-08-10T19:16:44.099Z,0.50
2022-08-10T19:19:42.940Z,0.30
2022-08-10T19:22:52.155Z,0.65
2022-08-10T19:26:41.772Z,0.45
2022-08-10T19:28:47.978Z,0.63
2022-08-10T19:31:44.059Z,0.50
2022-08-10T19:34:15.363Z,0.50
2022-08-10T19:36:53.121Z,0.57
2022-08-10T19:39:29.531Z,0.43
2022-08-10T19:42:11.467Z,0.43
2022-08-10T19:44:51.754Z,0.50
2022-08-10T19:47:39.766Z,0.43
2022-08-10T19:50:13.976Z,0.40
2022-08-10T19:53:15.026Z,0.38
2022-08-10T19:56:31.048Z,0.57
2022-08-10T20:00:16.935Z,0.30
2022-08-10T20:02:32.628Z,0.30
2022-08-10T20:05:18.546Z,0.30
2022-08-10T20:07:53.541Z,0.70
2022-08-10T20:10:37.711Z,0.45
2022-08-10T20:13:24.934Z,0.50
2022-08-10T20:16:06.431Z,0.50
2022-08-10T20:19:06.017Z,0.50
2022-08-10T20:21:48.392Z,0.40
2022-08-10T20:24:34.765Z,0.40
2022-08-10T20:27:58.972Z,0.40
2022-08-10T20:30:10.766Z,0.40
2022-08-10T20:32:50.560Z,0.38
2022-08-10T20:35:30.950Z,0.40
2022-08-10T20:38:21.546Z,0.52
2022-08-10T20:41:08.084Z,0.63
2022-08-10T20:44:03.989Z,0.73
2022-08-10T20:47:01.987Z,0.50
2022-08-10T20:49:52.789Z,0.57
2022-08-10T20:52:25.077Z,0.40
2022-08-10T20:55:03.115Z,0.50
2022-08-10T20:58:13.179Z,0.43
2022-08-10T21:00:46.488Z,0.35
2022-08-10T21:03:22.174Z,0.22
2022-08-10T21:06:08.564Z,0.50
2022-08-10T21:08:54.552Z,0.22
2022-08-10T21:11:40.869Z,0.25
2022-08-10T21:14:27.094Z,0.30
2022-08-10T21:17:23.667Z,0.40
2022-08-10T21:20:08.150Z,0.20
2022-08-10T21:22:44.960Z,0.40
2022-08-10T21:25:29.657Z,0.30
2022-08-10T21:28:38.970Z,0.40
2022-08-10T21:31:21.790Z,0.43
2022-08-10T21:34:12.752Z,0.30
2022-08-10T21:36:56.985Z,0.40
2022-08-10T21:40:05.227Z,0.40
2022-08-10T21:43:26.371Z,0.30
2022-08-10T21:47:12.817Z,0.40
2022-08-10T21:50:22.993Z,0.40
2022-08-10T21:53:45.139Z,0.30
2022-08-10T21:56:46.797Z,0.40
2022-08-10T21:59:43.137Z,0.20
2022-08-10T22:05:39.313Z,0.45
2022-08-10T22:08:32.080Z,0.22
2022-08-10T22:11:22.568Z,0.30
2022-08-10T22:14:10.392Z,0.40
2022-08-10T22:18:00.266Z,0.60
2022-08-10T22:20:38.551Z,0.35
2022-08-10T22:23:43.590Z,0.30
2022-08-10T22:27:00.625Z,0.30
2022-08-10T22:30:09.201Z,0.32
2022-08-10T22:33:28.769Z,0.40
2022-08-10T22:36:36.476Z,0.40
2022-08-10T22:40:12.307Z,0.35
2022-08-10T22:42:59.082Z,0.40
2022-08-10T22:45:56.685Z,0.50
2022-08-10T22:48:44.236Z,0.40
2022-08-10T22:51:18.347Z,0.40
2022-08-10T22:54:30.670Z,0.47
2022-08-10T22:57:20.258Z,0.50
2022-08-10T22:59:49.511Z,0.50
2022-08-10T23:02:32.933Z,0.40
2022-08-10T23:05:11.858Z,0.32
2022-08-10T23:07:51.758Z,0.40
2022-08-10T23:10:22.416Z,0.50
2022-08-10T23:12:56.827Z,0.30
2022-08-10T23:15:51.658Z,0.40
2022-08-10T23:18:46.741Z,0.47
2022-08-10T23:21:17.783Z,0.50
2022-08-10T23:23:46.561Z,0.40
2022-08-10T23:26:22.345Z,0.50
2022-08-10T23:28:59.907Z,0.57
2022-08-10T23:31:59.210Z,0.50
2022-08-10T23:34:31.572Z,0.40
2022-08-10T23:37:01.751Z,0.57
2022-08-10T23:39:37.279Z,0.68
2022-08-10T23:42:11.986Z,0.90
2022-08-10T23:44:48.459Z,0.50
2022-08-10T23:47:21.227Z,0.57
2022-08-10T23:49:51.340Z,0.50
2022-08-10T23:52:28.200Z,0.50
2022-08-10T23:55:05.133Z,0.70
2022-08-10T23:57:39.400Z,0.47
